createdAt,value
2023-08-15T00:01:33.357Z,47.76
2023-08-15T00:06:55.277Z,47.82
2023-08-15T00:12:17.155Z,48.15
2023-08-15T00:17:39.086Z,47.52
2023-08-15T00:23:01.409Z,47.89
2023-08-15T00:28:23.541Z,47.75
2023-08-15T00:33:45.627Z,48.00
2023-08-15T00:39:07.525Z,47.82
2023-08-15T00:44:29.367Z,47.77
2023-08-15T00:49:52.801Z,47.76
2023-08-15T00:55:14.811Z,47.93
2023-08-15T01:00:36.882Z,47.89
2023-08-15T01:05:58.812Z,47.80
2023-08-15T01:11:20.686Z,47.79
2023-08-15T01:16:46.693Z,47.85
2023-08-15T01:22:22.550Z,47.91
2023-08-15T01:27:44.392Z,47.95
2023-08-15T01:33:31.860Z,48.07
2023-08-15T01:38:59.340Z,48.06
2023-08-15T01:44:22.480Z,47.90
2023-08-15T01:49:44.360Z,48.04
2023-08-15T01:55:06.720Z,48.06
2023-08-15T02:00:28.766Z,48.15
2023-08-15T02:05:50.631Z,47.89
2023-08-15T02:11:13.136Z,48.36
2023-08-15T02:16:35.177Z,48.13
2023-08-15T02:21:57.785Z,47.99
2023-08-15T02:27:19.935Z,48.06
2023-08-15T02:32:41.973Z,48.07
2023-08-15T02:38:04.186Z,47.85
2023-08-15T02:43:26.044Z,47.81
2023-08-15T02:48:47.938Z,47.97
2023-08-15T02:54:09.868Z,47.81
2023-08-15T02:59:31.798Z,48.21
2023-08-15T03:04:53.717Z,48.38
2023-08-15T03:10:15.902Z,48.03
2023-08-15T03:15:38.630Z,48.11
2023-08-15T03:21:03.273Z,48.11
2023-08-15T03:26:27.346Z,48.24
2023-08-15T03:31:49.487Z,48.40
2023-08-15T03:37:11.514Z,48.00
2023-08-15T03:42:33.391Z,48.12
2023-08-15T03:47:55.282Z,48.37
2023-08-15T03:53:17.178Z,48.32
2023-08-15T03:58:39.034Z,48.02
2023-08-15T04:04:01.147Z,48.15
2023-08-15T04:09:23.245Z,47.78
2023-08-15T04:14:45.267Z,48.49
2023-08-15T04:20:08.761Z,48.34
2023-08-15T04:25:31.961Z,48.08
2023-08-15T04:30:53.976Z,48.23
2023-08-15T04:36:15.945Z,48.10
2023-08-15T04:41:37.799Z,48.21
2023-08-15T04:46:59.616Z,48.17
2023-08-15T04:52:21.460Z,48.12
2023-08-15T04:57:43.317Z,48.17
2023-08-15T05:03:05.498Z,48.11
2023-08-15T05:08:27.496Z,48.17
2023-08-15T05:13:49.353Z,47.81
2023-08-15T05:19:11.320Z,48.16
2023-08-15T05:24:33.472Z,48.48
2023-08-15T05:29:55.513Z,48.39
2023-08-15T05:35:17.550Z,48.17
2023-08-15T05:40:40.695Z,47.92
2023-08-15T05:46:02.863Z,48.32
2023-08-15T05:51:25.006Z,47.85
2023-08-15T05:56:46.877Z,47.86
2023-08-15T06:02:09.159Z,48.01
2023-08-15T06:07:31.260Z,48.26
2023-08-15T06:12:56.211Z,48.18
2023-08-15T06:18:18.116Z,48.58
2023-08-15T06:23:40.106Z,48.28
2023-08-15T06:29:02.132Z,48.29
2023-08-15T06:34:24.009Z,48.43
2023-08-15T06:39:45.949Z,48.15
2023-08-15T06:45:12.890Z,47.86
2023-08-15T06:50:34.969Z,47.92
2023-08-15T06:55:56.880Z,47.76
2023-08-15T07:01:18.784Z,48.07
2023-08-15T07:06:40.680Z,48.16
2023-08-15T07:12:04.361Z,48.05
2023-08-15T07:17:26.234Z,47.90
2023-08-15T07:22:48.339Z,48.14
2023-08-15T07:28:10.718Z,48.28
2023-08-15T07:33:32.746Z,47.87
2023-08-15T07:38:54.819Z,48.25
2023-08-15T07:44:16.871Z,48.00
2023-08-15T07:49:39.323Z,47.90
2023-08-15T07:55:01.383Z,48.27
2023-08-15T08:00:24.263Z,47.77
2023-08-15T08:05:47.508Z,48.17
2023-08-15T08:11:10.088Z,47.80
2023-08-15T08:16:32.143Z,48.34
2023-08-15T08:21:54.498Z,48.17
2023-08-15T08:27:16.736Z,48.36
2023-08-15T08:32:38.709Z,48.18
2023-08-15T08:38:00.666Z,48.21
2023-08-15T08:43:22.670Z,48.07
2023-08-15T08:48:45.333Z,48.37
2023-08-15T08:54:07.499Z,48.64
2023-08-15T08:59:29.957Z,48.25
2023-08-15T09:04:54.052Z,48.08
2023-08-15T09:10:16.308Z,48.21
2023-08-15T09:15:41.558Z,47.88
2023-08-15T09:21:05.831Z,48.18
2023-08-15T09:26:33.116Z,47.87
2023-08-15T09:31:55.091Z,47.59
2023-08-15T09:37:17.023Z,47.53
2023-08-15T09:42:38.952Z,47.72
2023-08-15T09:48:01.823Z,47.61
2023-08-15T09:53:25.104Z,47.46
2023-08-15T09:58:47.328Z,47.34
2023-08-15T10:04:14.133Z,47.31
2023-08-15T10:09:36.452Z,47.51
2023-08-15T10:15:02.319Z,47.24
2023-08-15T10:20:24.525Z,47.18
2023-08-15T10:25:50.484Z,46.82
2023-08-15T10:31:12.759Z,46.73
2023-08-15T10:36:34.805Z,46.62
2023-08-15T10:41:59.094Z,46.35
2023-08-15T10:47:24.343Z,46.56
2023-08-15T10:52:57.235Z,46.50
2023-08-15T10:58:22.256Z,46.44
2023-08-15T11:03:45.243Z,46.83
2023-08-15T11:09:07.378Z,46.49
2023-08-15T11:14:29.308Z,46.63
2023-08-15T11:19:51.678Z,46.56
2023-08-15T11:25:13.842Z,46.41
2023-08-15T11:30:35.884Z,46.58
2023-08-15T11:36:05.313Z,46.42
2023-08-15T11:41:27.536Z,46.57
2023-08-15T11:46:54.773Z,46.56
2023-08-15T11:52:18.604Z,46.74
2023-08-15T11:57:41.947Z,46.91
2023-08-15T12:03:04.220Z,47.28
2023-08-15T12:08:30.711Z,46.95
2023-08-15T12:13:52.669Z,47.11
2023-08-15T12:19:17.914Z,46.58
2023-08-15T12:24:42.146Z,46.65
2023-08-15T12:30:12.434Z,46.44
2023-08-15T12:35:37.510Z,46.25
2023-08-15T12:40:59.455Z,46.24
2023-08-15T12:46:21.504Z,46.32
2023-08-15T12:51:43.457Z,46.05
2023-08-15T12:57:05.530Z,45.94
2023-08-15T13:02:30.544Z,45.84
2023-08-15T13:07:52.701Z,45.87
2023-08-15T13:13:14.806Z,45.60
2023-08-15T13:18:37.197Z,45.39
2023-08-15T13:23:59.062Z,45.42
2023-08-15T13:29:21.179Z,45.37
2023-08-15T13:34:43.022Z,45.28
2023-08-15T13:40:05.330Z,45.36
2023-08-15T13:45:27.629Z,45.48
2023-08-15T13:50:49.478Z,45.84
2023-08-15T13:56:12.816Z,45.90
2023-08-15T14:01:35.154Z,45.93
2023-08-15T14:07:00.133Z,46.13
2023-08-15T14:12:22.701Z,45.97
2023-08-15T14:17:44.916Z,46.09
2023-08-15T14:23:07.070Z,45.92
2023-08-15T14:28:31.987Z,46.34
2023-08-15T14:33:53.950Z,45.83
2023-08-15T14:39:15.754Z,45.68
2023-08-15T14:44:37.771Z,45.83
2023-08-15T14:50:01.110Z,45.81
2023-08-15T14:55:23.183Z,46.13
2023-08-15T15:00:48.097Z,46.11
2023-08-15T15:06:09.924Z,46.21
2023-08-15T15:11:31.788Z,46.10
2023-08-15T15:16:56.192Z,46.13
2023-08-15T15:22:19.488Z,46.58
2023-08-15T15:27:41.355Z,46.37
2023-08-15T15:33:03.612Z,46.65
2023-08-15T15:38:25.576Z,46.69
2023-08-15T15:43:49.016Z,46.69
2023-08-15T15:49:11.053Z,46.70
2023-08-15T15:54:32.921Z,46.70
2023-08-15T15:59:54.825Z,46.83
2023-08-15T16:05:16.981Z,46.90
2023-08-15T16:10:39.045Z,47.13
2023-08-15T16:16:00.939Z,47.04
2023-08-15T16:21:23.313Z,47.06
2023-08-15T16:26:45.161Z,46.81
2023-08-15T16:32:07.164Z,47.13
2023-08-15T16:37:29.045Z,46.68
2023-08-15T16:43:16.193Z,47.11
2023-08-15T16:48:38.808Z,46.68
2023-08-15T16:54:00.716Z,47.02
2023-08-15T16:59:22.760Z,46.63
2023-08-15T17:04:45.614Z,46.63
2023-08-15T17:10:08.136Z,46.86
2023-08-15T17:15:30.207Z,46.66
2023-08-15T17:20:53.646Z,46.47
2023-08-15T17:26:15.708Z,46.70
2023-08-15T17:31:37.596Z,46.57
2023-08-15T17:37:02.760Z,46.70
2023-08-15T17:42:24.746Z,46.70
2023-08-15T17:47:47.075Z,46.52
2023-08-15T17:53:09.001Z,46.76
2023-08-15T17:58:50.631Z,46.89
2023-08-15T18:04:12.649Z,46.87
2023-08-15T18:09:35.468Z,46.73
2023-08-15T18:14:57.458Z,46.77
2023-08-15T18:20:19.387Z,46.63
2023-08-15T18:25:41.338Z,46.71
2023-08-15T18:31:03.294Z,46.65
2023-08-15T18:36:25.253Z,46.72
2023-08-15T18:41:47.940Z,46.65
2023-08-15T18:47:09.865Z,46.89
2023-08-15T18:52:31.785Z,46.54
2023-08-15T18:57:53.960Z,46.57
2023-08-15T19:03:15.946Z,46.44
2023-08-15T19:08:37.981Z,46.34
2023-08-15T19:13:59.865Z,46.38
2023-08-15T19:19:21.718Z,45.97
2023-08-15T19:24:45.469Z,46.39
2023-08-15T19:30:08.708Z,46.47
2023-08-15T19:35:31.297Z,46.15
2023-08-15T19:40:53.184Z,46.31
2023-08-15T19:46:15.098Z,46.21
2023-08-15T19:51:37.028Z,46.02
2023-08-15T19:56:58.883Z,46.10
2023-08-15T20:02:23.860Z,46.04
2023-08-15T20:07:46.023Z,46.14
2023-08-15T20:13:08.061Z,46.39
2023-08-15T20:18:30.097Z,46.12
2023-08-15T20:23:52.040Z,45.98
2023-08-15T20:29:14.016Z,46.03
2023-08-15T20:34:36.050Z,46.70
2023-08-15T20:39:57.995Z,46.91
2023-08-15T20:45:19.944Z,46.72
2023-08-15T20:50:41.783Z,46.70
2023-08-15T20:56:03.715Z,46.75
2023-08-15T21:01:26.216Z,46.86
2023-08-15T21:06:48.343Z,46.65
2023-08-15T21:12:10.287Z,46.62
2023-08-15T21:17:32.297Z,46.95
2023-08-15T21:22:54.283Z,46.75
2023-08-15T21:28:17.409Z,46.77
2023-08-15T21:33:39.295Z,46.71
2023-08-15T21:39:01.147Z,46.92
2023-08-15T21:44:23.704Z,46.81
2023-08-15T21:49:45.893Z,47.15
2023-08-15T21:55:08.108Z,46.98
2023-08-15T22:00:29.994Z,46.68
2023-08-15T22:05:51.886Z,46.83
2023-08-15T22:11:14.808Z,47.11
2023-08-15T22:16:36.831Z,46.99
2023-08-15T22:21:58.748Z,46.95
2023-08-15T22:27:21.099Z,47.13
2023-08-15T22:32:43.362Z,46.95
2023-08-15T22:38:05.632Z,47.02
2023-08-15T22:43:27.570Z,47.13
2023-08-15T22:48:49.831Z,47.16
2023-08-15T22:54:11.895Z,47.10
2023-08-15T22:59:33.976Z,47.39
2023-08-15T23:04:55.879Z,47.18
2023-08-15T23:10:17.913Z,46.95
2023-08-15T23:15:40.055Z,47.40
2023-08-15T23:21:02.035Z,47.01
2023-08-15T23:26:24.126Z,47.35
2023-08-15T23:31:46.213Z,47.26
2023-08-15T23:37:08.100Z,47.18
2023-08-15T23:42:30.128Z,47.68
2023-08-15T23:47:51.996Z,46.98
2023-08-15T23:53:14.189Z,46.95
2023-08-15T23:58:36.196Z,47.28
